createdAt,value
2018-09-22T00:01:12.307Z,68.92
2018-09-22T00:03:36.166Z,68.93
2018-09-22T00:06:00.098Z,69.13
2018-09-22T00:08:23.974Z,69.49
2018-09-22T00:10:47.903Z,69.26
2018-09-22T00:13:11.825Z,69.83
2018-09-22T00:15:35.728Z,69.23
2018-09-22T00:17:59.665Z,69.27
2018-09-22T00:20:23.580Z,69.80
2018-09-22T00:22:47.522Z,70.14
2018-09-22T00:25:11.377Z,69.90
2018-09-22T00:27:35.235Z,69.70
2018-09-22T00:29:59.135Z,69.37
2018-09-22T00:32:23.014Z,69.12
2018-09-22T00:34:46.879Z,69.11
2018-09-22T00:37:10.756Z,69.08
2018-09-22T00:39:34.756Z,69.64
2018-09-22T00:41:58.601Z,69.16
2018-09-22T00:44:22.464Z,69.74
2018-09-22T00:46:46.355Z,70.01
2018-09-22T00:49:10.212Z,71.10
2018-09-22T00:51:34.145Z,70.38
2018-09-22T00:53:58.016Z,70.97
2018-09-22T00:56:21.861Z,70.73
2018-09-22T00:58:45.804Z,70.78
2018-09-22T01:01:09.647Z,71.76
2018-09-22T01:03:33.525Z,71.10
2018-09-22T01:05:57.464Z,72.25
2018-09-22T01:08:21.548Z,72.12
2018-09-22T01:10:45.646Z,72.43
2018-09-22T01:13:09.568Z,72.95
2018-09-22T01:15:33.500Z,72.90
2018-09-22T01:17:57.404Z,74.23
2018-09-22T01:20:21.285Z,74.20
2018-09-22T01:22:45.405Z,74.07
2018-09-22T01:25:09.289Z,73.89
2018-09-22T01:27:33.145Z,74.56
2018-09-22T01:29:57.074Z,74.46
2018-09-22T01:32:20.948Z,74.76
2018-09-22T01:34:44.999Z,75.67
2018-09-22T01:37:08.871Z,75.11
2018-09-22T01:39:32.747Z,76.49
2018-09-22T01:41:56.720Z,75.85
2018-09-22T01:44:20.582Z,76.44
2018-09-22T01:46:44.599Z,75.94
2018-09-22T01:49:08.480Z,76.15
2018-09-22T01:51:33.063Z,75.43
2018-09-22T01:53:57.051Z,76.18
2018-09-22T01:56:20.950Z,76.70
2018-09-22T01:58:44.894Z,74.66
2018-09-22T02:01:08.776Z,74.35
2018-09-22T02:03:32.650Z,74.36
2018-09-22T02:05:56.589Z,75.76
2018-09-22T02:08:20.461Z,75.65
2018-09-22T02:10:44.372Z,75.00
2018-09-22T02:13:08.210Z,73.58
2018-09-22T02:15:32.090Z,74.22
2018-09-22T02:17:55.987Z,75.24
2018-09-22T02:20:19.860Z,75.06
2018-09-22T02:22:43.827Z,75.04
2018-09-22T02:25:07.814Z,74.66
2018-09-22T02:27:31.665Z,74.48
2018-09-22T02:29:55.552Z,74.77
2018-09-22T02:32:19.469Z,74.00
2018-09-22T02:34:43.451Z,73.53
2018-09-22T02:37:07.325Z,73.77
2018-09-22T02:39:31.146Z,73.71
2018-09-22T02:41:55.036Z,73.05
2018-09-22T02:44:18.899Z,73.54
2018-09-22T02:46:42.805Z,73.79
2018-09-22T02:49:06.646Z,73.92
2018-09-22T02:51:30.693Z,73.73
2018-09-22T02:53:54.573Z,73.65
2018-09-22T02:56:18.440Z,73.43
2018-09-22T02:58:42.344Z,74.76
2018-09-22T03:01:06.273Z,75.27
2018-09-22T03:03:30.155Z,75.96
2018-09-22T03:05:54.000Z,76.66
2018-09-22T03:08:17.864Z,76.75
2018-09-22T03:10:41.776Z,76.55
2018-09-22T03:13:05.624Z,77.00
2018-09-22T03:15:29.546Z,76.31
2018-09-22T03:17:53.416Z,76.34
2018-09-22T03:20:17.288Z,76.39
2018-09-22T03:22:41.182Z,75.97
2018-09-22T03:25:05.161Z,76.04
2018-09-22T03:27:29.056Z,76.20
2018-09-22T03:29:52.973Z,76.85
2018-09-22T03:32:16.850Z,76.89
2018-09-22T03:34:40.736Z,76.40
2018-09-22T03:37:04.643Z,76.67
2018-09-22T03:39:28.516Z,75.64
2018-09-22T03:41:52.371Z,76.30
2018-09-22T03:44:16.213Z,76.66
2018-09-22T03:46:40.089Z,76.92
2018-09-22T03:49:03.947Z,77.30
2018-09-22T03:51:27.880Z,77.03
2018-09-22T03:53:51.751Z,77.53
2018-09-22T03:56:15.600Z,77.06
2018-09-22T03:58:39.496Z,77.46
2018-09-22T04:01:03.344Z,76.62
2018-09-22T04:03:27.283Z,76.62
2018-09-22T04:05:51.183Z,76.24
2018-09-22T04:08:15.190Z,75.92
2018-09-22T04:10:39.045Z,75.71
2018-09-22T04:13:02.895Z,75.60
2018-09-22T04:15:26.815Z,76.20
2018-09-22T04:17:50.671Z,75.68
2018-09-22T04:20:14.871Z,76.40
2018-09-22T04:22:38.780Z,75.37
2018-09-22T04:25:02.626Z,76.27
2018-09-22T04:27:26.543Z,76.94
2018-09-22T04:29:50.402Z,76.49
2018-09-22T04:32:14.430Z,76.57
2018-09-22T04:34:38.392Z,76.64
2018-09-22T04:37:02.235Z,76.67
2018-09-22T04:39:26.223Z,75.73
2018-09-22T04:41:50.071Z,76.54
2018-09-22T04:44:14.133Z,77.15
2018-09-22T04:46:38.183Z,76.91
2018-09-22T04:49:02.148Z,76.98
2018-09-22T04:51:26.885Z,76.26
2018-09-22T04:53:50.786Z,77.31
2018-09-22T04:56:14.656Z,77.62
2018-09-22T04:58:38.524Z,76.58
2018-09-22T05:01:02.389Z,75.97
2018-09-22T05:03:26.340Z,76.75
2018-09-22T05:05:50.186Z,75.64
2018-09-22T05:08:14.035Z,74.93
2018-09-22T05:10:37.883Z,76.13
2018-09-22T05:13:01.731Z,75.19
2018-09-22T05:15:25.719Z,74.90
2018-09-22T05:17:49.564Z,75.38
2018-09-22T05:20:13.433Z,75.51
2018-09-22T05:22:37.353Z,74.95
2018-09-22T05:25:01.489Z,75.51
2018-09-22T05:27:25.492Z,73.83
2018-09-22T05:29:49.370Z,75.33
2018-09-22T05:32:13.297Z,72.82
2018-09-22T05:34:38.106Z,73.70
2018-09-22T05:37:01.976Z,73.85
2018-09-22T05:39:26.289Z,74.81
2018-09-22T05:41:50.180Z,73.90
2018-09-22T05:44:13.997Z,72.53
2018-09-22T05:46:37.935Z,73.73
2018-09-22T05:49:01.866Z,73.54
2018-09-22T05:51:25.824Z,74.04
2018-09-22T05:53:49.682Z,72.84
2018-09-22T05:56:13.606Z,72.78
2018-09-22T05:58:37.483Z,73.81
2018-09-22T06:01:01.543Z,73.80
2018-09-22T06:03:25.565Z,73.51
2018-09-22T06:05:49.381Z,74.15
2018-09-22T06:08:13.243Z,72.93
2018-09-22T06:10:37.473Z,72.60
2018-09-22T06:13:01.307Z,74.02
2018-09-22T06:15:25.221Z,73.50
2018-09-22T06:17:49.081Z,74.25
2018-09-22T06:20:12.941Z,73.58
2018-09-22T06:22:36.958Z,74.11
2018-09-22T06:25:00.857Z,73.43
2018-09-22T06:27:24.749Z,73.55
2018-09-22T06:29:48.609Z,73.32
2018-09-22T06:32:12.463Z,73.88
2018-09-22T06:34:36.352Z,73.95
2018-09-22T06:37:00.427Z,73.04
2018-09-22T06:39:24.272Z,73.77
2018-09-22T06:44:06.684Z,73.43
2018-09-22T06:46:30.567Z,73.12
2018-09-22T06:48:54.520Z,73.00
2018-09-22T06:51:18.458Z,73.41
2018-09-22T06:53:42.387Z,73.24
2018-09-22T06:56:06.261Z,73.67
2018-09-22T06:58:30.157Z,73.22
2018-09-22T07:00:54.053Z,73.18
2018-09-22T07:03:17.921Z,72.97
2018-09-22T07:05:41.825Z,73.09
2018-09-22T07:08:05.752Z,71.74
2018-09-22T07:10:29.608Z,73.58
2018-09-22T07:12:53.534Z,72.08
2018-09-22T07:15:17.678Z,73.17
2018-09-22T07:17:41.547Z,72.35
2018-09-22T07:20:05.426Z,71.58
2018-09-22T07:22:34.554Z,72.51
2018-09-22T07:24:58.471Z,72.09
2018-09-22T07:27:22.302Z,71.90
2018-09-22T07:29:46.215Z,71.88
2018-09-22T07:32:10.095Z,71.48
2018-09-22T07:34:34.013Z,71.77
2018-09-22T07:36:57.998Z,71.64
2018-09-22T07:39:21.892Z,71.05
2018-09-22T07:41:45.750Z,71.05
2018-09-22T07:44:09.809Z,70.56
2018-09-22T07:46:33.789Z,70.10
2018-09-22T07:48:57.683Z,70.23
2018-09-22T07:51:21.589Z,70.10
2018-09-22T07:53:45.456Z,69.57
2018-09-22T07:56:09.352Z,68.81
2018-09-22T07:58:33.245Z,68.77
2018-09-22T08:00:57.150Z,69.44
2018-09-22T08:03:21.008Z,68.00
2018-09-22T08:05:44.923Z,68.49
2018-09-22T08:08:08.793Z,67.25
2018-09-22T08:10:32.658Z,68.00
2018-09-22T08:12:56.606Z,67.18
2018-09-22T08:15:20.478Z,67.13
2018-09-22T08:17:44.405Z,66.84
2018-09-22T08:20:08.772Z,67.18
2018-09-22T08:22:32.681Z,65.59
2018-09-22T08:24:56.604Z,65.19
2018-09-22T08:27:20.448Z,65.13
2018-09-22T08:29:44.347Z,65.03
2018-09-22T08:32:08.258Z,66.85
2018-09-22T08:34:32.166Z,65.83
2018-09-22T08:36:56.142Z,66.22
2018-09-22T08:39:19.963Z,65.08
2018-09-22T08:41:43.831Z,64.40
2018-09-22T08:44:07.737Z,64.26
2018-09-22T08:46:31.625Z,65.13
2018-09-22T08:48:55.527Z,64.94
2018-09-22T08:51:19.585Z,64.02
2018-09-22T08:53:43.431Z,66.20
2018-09-22T08:56:07.366Z,64.71
2018-09-22T08:58:31.307Z,64.49
2018-09-22T09:00:55.203Z,63.37
2018-09-22T09:03:19.102Z,63.39
2018-09-22T09:05:43.080Z,64.10
2018-09-22T09:08:06.948Z,63.99
2018-09-22T09:10:30.808Z,63.58
2018-09-22T09:12:54.657Z,63.77
2018-09-22T09:15:18.578Z,63.09
2018-09-22T09:17:42.448Z,62.72
2018-09-22T09:20:06.429Z,61.72
2018-09-22T09:22:30.314Z,62.21
2018-09-22T09:24:54.206Z,61.22
2018-09-22T09:27:18.122Z,59.36
2018-09-22T09:29:42.009Z,59.05
2018-09-22T09:32:06.022Z,59.12
2018-09-22T09:34:29.921Z,58.93
2018-09-22T09:36:53.748Z,58.27
2018-09-22T09:39:17.669Z,57.08
2018-09-22T09:41:41.576Z,57.33
2018-09-22T09:44:05.589Z,56.51
2018-09-22T09:46:29.491Z,57.09
2018-09-22T09:48:53.551Z,56.55
2018-09-22T09:51:17.660Z,55.86
2018-09-22T09:53:41.522Z,56.60
2018-09-22T09:56:05.396Z,55.09
2018-09-22T09:58:29.329Z,54.80
2018-09-22T10:00:53.540Z,55.24
2018-09-22T10:03:18.523Z,55.11
2018-09-22T10:05:42.632Z,55.25
2018-09-22T10:08:06.839Z,55.75
2018-09-22T10:10:30.785Z,56.12
2018-09-22T10:12:54.712Z,55.67
2018-09-22T10:15:18.685Z,54.80
2018-09-22T10:17:42.557Z,54.88
2018-09-22T10:20:06.496Z,54.58
2018-09-22T10:22:30.406Z,54.05
2018-09-22T10:24:54.242Z,53.87
2018-09-22T10:27:18.130Z,54.25
2018-09-22T10:29:41.999Z,53.56
2018-09-22T10:32:06.048Z,52.76
2018-09-22T10:34:29.989Z,54.17
2018-09-22T10:36:53.897Z,53.72
2018-09-22T10:39:17.821Z,54.22
2018-09-22T10:41:41.762Z,52.67
2018-09-22T10:44:05.615Z,53.26
2018-09-22T10:46:29.539Z,52.86
2018-09-22T10:48:53.440Z,51.14
2018-09-22T10:51:17.280Z,51.93
2018-09-22T10:53:41.217Z,51.35
2018-09-22T10:56:05.123Z,51.84
2018-09-22T10:58:28.998Z,51.89
2018-09-22T11:00:52.902Z,50.76
2018-09-22T11:03:16.891Z,51.44
2018-09-22T11:05:40.807Z,49.81
2018-09-22T11:08:04.673Z,51.23
2018-09-22T11:10:28.608Z,50.21
2018-09-22T11:12:52.497Z,48.13
2018-09-22T11:15:16.501Z,48.17
2018-09-22T11:17:40.389Z,48.17
2018-09-22T11:20:04.291Z,48.38
2018-09-22T11:22:28.177Z,48.55
2018-09-22T11:24:52.067Z,49.14
2018-09-22T11:27:16.065Z,48.80
2018-09-22T11:29:39.967Z,47.53
2018-09-22T11:32:03.865Z,49.48
2018-09-22T11:34:27.760Z,48.57
2018-09-22T11:36:51.629Z,46.97
2018-09-22T11:39:15.624Z,45.65
2018-09-22T11:41:39.802Z,45.19
2018-09-22T11:44:03.702Z,46.23
2018-09-22T11:46:27.599Z,45.13
2018-09-22T11:48:51.516Z,45.80
2018-09-22T11:51:15.496Z,45.30
2018-09-22T11:53:39.474Z,45.59
2018-09-22T11:56:03.342Z,45.00
2018-09-22T11:58:27.311Z,45.92
2018-09-22T12:00:51.228Z,45.08
2018-09-22T12:03:15.280Z,44.62
2018-09-22T12:05:39.166Z,44.64
2018-09-22T12:08:03.095Z,44.14
2018-09-22T12:10:27.094Z,43.70
2018-09-22T12:12:50.971Z,44.72
2018-09-22T12:15:14.889Z,45.79
2018-09-22T12:17:38.861Z,45.87
2018-09-22T12:20:02.772Z,47.03
2018-09-22T12:22:26.676Z,43.94
2018-09-22T12:24:50.610Z,44.02
2018-09-22T12:27:14.504Z,46.08
2018-09-22T12:29:38.520Z,46.45
2018-09-22T12:32:02.479Z,45.36
2018-09-22T12:34:26.394Z,44.99
2018-09-22T12:36:50.315Z,44.65
2018-09-22T12:39:14.244Z,44.60
2018-09-22T12:41:38.429Z,44.94
2018-09-22T12:44:02.306Z,44.34
2018-09-22T12:46:26.229Z,44.62
2018-09-22T12:48:50.183Z,46.06
2018-09-22T12:51:14.125Z,46.54
2018-09-22T12:53:38.276Z,45.51
2018-09-22T12:56:02.178Z,45.18
2018-09-22T12:58:26.107Z,45.79
2018-09-22T13:00:50.018Z,45.67
2018-09-22T13:03:13.892Z,45.89
2018-09-22T13:05:37.919Z,46.98
2018-09-22T13:08:01.788Z,47.06
2018-09-22T13:10:25.730Z,44.96
2018-09-22T13:12:49.648Z,45.99
2018-09-22T13:15:13.570Z,46.75
2018-09-22T13:17:37.608Z,46.33
2018-09-22T13:20:01.500Z,46.70
2018-09-22T13:22:25.392Z,47.00
2018-09-22T13:24:49.398Z,46.77
2018-09-22T13:27:13.279Z,46.06
2018-09-22T13:29:37.282Z,47.21
2018-09-22T13:32:01.195Z,47.60
2018-09-22T13:34:25.080Z,47.26
2018-09-22T13:36:49.023Z,47.69
2018-09-22T13:39:13.336Z,49.15
2018-09-22T13:41:37.254Z,47.00
2018-09-22T13:44:01.176Z,47.12
2018-09-22T13:46:25.233Z,48.21
2018-09-22T13:48:49.166Z,46.86
2018-09-22T13:51:13.057Z,47.89
2018-09-22T13:53:36.981Z,48.28
2018-09-22T13:56:00.853Z,49.37
2018-09-22T13:58:24.770Z,48.76
2018-09-22T14:00:48.665Z,49.02
2018-09-22T14:03:12.596Z,48.05
2018-09-22T14:05:36.444Z,47.26
2018-09-22T14:08:00.354Z,47.60
2018-09-22T14:10:24.266Z,48.00
2018-09-22T14:12:48.097Z,47.66
2018-09-22T14:15:18.556Z,47.76
2018-09-22T14:17:42.470Z,49.27
2018-09-22T14:20:06.388Z,49.18
2018-09-22T14:22:30.288Z,47.97
2018-09-22T14:24:54.348Z,47.82
2018-09-22T14:27:18.227Z,47.07
2018-09-22T14:29:42.191Z,46.92
2018-09-22T14:32:06.136Z,46.34
2018-09-22T14:34:30.040Z,46.95
2018-09-22T14:36:53.959Z,48.56
2018-09-22T14:39:17.794Z,48.14
2018-09-22T14:41:41.783Z,48.84
2018-09-22T14:44:05.694Z,48.22
2018-09-22T14:46:29.609Z,48.42
2018-09-22T14:48:53.538Z,48.77
2018-09-22T14:51:17.422Z,49.35
2018-09-22T14:53:41.267Z,49.63
2018-09-22T14:56:05.207Z,52.48
2018-09-22T14:58:29.123Z,53.70
2018-09-22T15:00:53.031Z,53.78
2018-09-22T15:03:16.915Z,56.76
2018-09-22T15:05:40.796Z,57.85
2018-09-22T15:08:04.691Z,62.01
2018-09-22T15:10:28.623Z,65.87
2018-09-22T15:12:52.532Z,67.52
2018-09-22T15:15:16.438Z,66.56
2018-09-22T15:17:40.358Z,65.26
2018-09-22T15:20:04.545Z,63.45
2018-09-22T15:22:28.458Z,64.18
2018-09-22T15:24:52.364Z,64.27
2018-09-22T15:27:16.370Z,64.34
2018-09-22T15:29:40.247Z,64.18
2018-09-22T15:32:04.131Z,64.40
2018-09-22T15:34:28.046Z,65.52
2018-09-22T15:36:51.993Z,67.04
2018-09-22T15:39:15.845Z,68.74
2018-09-22T15:41:39.736Z,69.75
2018-09-22T15:44:03.672Z,68.10
2018-09-22T15:46:27.597Z,66.74
2018-09-22T15:48:51.514Z,68.93
2018-09-22T15:51:15.387Z,67.51
2018-09-22T15:53:39.460Z,67.44
2018-09-22T15:56:03.457Z,68.18
2018-09-22T15:58:27.883Z,71.01
2018-09-22T16:00:51.852Z,68.25
2018-09-22T16:03:15.809Z,66.18
2018-09-22T16:05:39.739Z,64.50
2018-09-22T16:08:03.812Z,64.21
2018-09-22T16:10:27.688Z,66.32
2018-09-22T16:12:51.744Z,66.11
2018-09-22T16:15:15.625Z,65.65
2018-09-22T16:17:39.569Z,66.30
2018-09-22T16:20:03.517Z,66.66
2018-09-22T16:22:27.524Z,67.72
2018-09-22T16:24:51.666Z,68.92
2018-09-22T16:27:15.582Z,70.72
2018-09-22T16:29:39.955Z,70.37
2018-09-22T16:32:03.915Z,71.30
2018-09-22T16:34:27.796Z,72.05
2018-09-22T16:36:51.692Z,72.15
2018-09-22T16:39:15.611Z,73.16
2018-09-22T16:41:39.733Z,73.03
2018-09-22T16:44:03.701Z,72.69
2018-09-22T16:46:27.648Z,72.48
2018-09-22T16:48:51.571Z,72.66
2018-09-22T16:51:15.486Z,72.33
2018-09-22T16:53:39.410Z,71.47
2018-09-22T16:56:03.336Z,69.78
2018-09-22T16:58:27.275Z,70.54
2018-09-22T17:00:51.168Z,70.82
2018-09-22T17:03:15.078Z,71.08
2018-09-22T17:05:39.016Z,70.16
2018-09-22T17:08:02.893Z,70.89
2018-09-22T17:10:27.361Z,70.67
2018-09-22T17:12:51.233Z,70.22
2018-09-22T17:15:15.154Z,70.35
2018-09-22T17:17:39.426Z,71.04
2018-09-22T17:20:03.332Z,70.73
2018-09-22T17:22:27.259Z,70.57
2018-09-22T17:24:51.176Z,69.97
2018-09-22T17:27:15.024Z,71.07
2018-09-22T17:29:38.934Z,70.50
2018-09-22T17:32:02.888Z,70.75
2018-09-22T17:34:26.801Z,70.48
2018-09-22T17:36:50.802Z,70.37
2018-09-22T17:39:14.700Z,70.22
2018-09-22T17:41:38.589Z,70.30
2018-09-22T17:44:02.588Z,69.49
2018-09-22T17:46:26.529Z,70.39
2018-09-22T17:48:50.495Z,70.01
2018-09-22T17:51:14.442Z,70.39
2018-09-22T17:53:38.391Z,69.81
2018-09-22T17:56:02.351Z,69.71
2018-09-22T17:58:26.278Z,69.17
2018-09-22T18:00:50.419Z,69.06
2018-09-22T18:03:14.332Z,70.11
2018-09-22T18:05:38.228Z,70.07
2018-09-22T18:08:02.133Z,71.12
2018-09-22T18:10:26.031Z,70.57
2018-09-22T18:12:49.984Z,71.07
2018-09-22T18:15:14.015Z,71.07
2018-09-22T18:17:37.962Z,69.99
2018-09-22T18:20:01.938Z,70.30
2018-09-22T18:22:25.861Z,71.27
2018-09-22T18:24:50.018Z,71.54
2018-09-22T18:27:14.338Z,70.80
2018-09-22T18:29:38.320Z,72.58
2018-09-22T18:32:02.183Z,71.90
2018-09-22T18:34:26.144Z,72.79
2018-09-22T18:36:50.229Z,72.82
2018-09-22T18:39:14.154Z,72.19
2018-09-22T18:41:38.172Z,71.02
2018-09-22T18:44:02.121Z,72.38
2018-09-22T18:46:26.036Z,72.47
2018-09-22T18:48:50.123Z,72.15
2018-09-22T18:51:14.011Z,72.51
2018-09-22T18:53:38.103Z,72.96
2018-09-22T18:56:01.966Z,72.11
2018-09-22T18:58:25.972Z,72.92
2018-09-22T19:00:50.007Z,72.43
2018-09-22T19:03:13.934Z,72.90
2018-09-22T19:05:37.899Z,73.75
2018-09-22T19:08:01.814Z,73.86
2018-09-22T19:10:25.682Z,74.19
2018-09-22T19:12:49.853Z,74.06
2018-09-22T19:15:18.289Z,75.25
2018-09-22T19:17:49.312Z,74.97
2018-09-22T19:20:19.671Z,75.45
2018-09-22T19:22:47.755Z,75.30
2018-09-22T19:25:13.926Z,75.98
2018-09-22T19:27:43.900Z,75.52
2018-09-22T19:30:23.434Z,76.06
2018-09-22T19:32:52.192Z,75.46
2018-09-22T19:35:26.217Z,74.99
2018-09-22T19:37:52.935Z,74.48
2018-09-22T19:40:20.632Z,73.71
2018-09-22T19:42:48.402Z,71.63
2018-09-22T19:45:15.433Z,72.27
2018-09-22T19:47:47.195Z,72.34
2018-09-22T19:50:13.775Z,73.83
2018-09-22T19:52:40.784Z,72.17
2018-09-22T19:55:04.720Z,72.62
2018-09-22T19:57:28.662Z,72.53
2018-09-22T19:59:52.514Z,72.53
2018-09-22T20:02:16.448Z,72.71
2018-09-22T20:04:40.359Z,71.67
2018-09-22T20:07:04.309Z,71.66
2018-09-22T20:09:28.244Z,72.44
2018-09-22T20:11:52.146Z,72.18
2018-09-22T20:14:16.058Z,74.26
2018-09-22T20:16:39.957Z,73.02
2018-09-22T20:19:04.207Z,73.00
2018-09-22T20:21:28.109Z,73.73
2018-09-22T20:23:52.490Z,74.58
2018-09-22T20:26:16.387Z,74.82
2018-09-22T20:28:40.301Z,74.59
2018-09-22T20:31:04.416Z,73.27
2018-09-22T20:33:28.439Z,75.09
2018-09-22T20:35:52.361Z,74.74
2018-09-22T20:38:16.293Z,74.93
2018-09-22T20:40:40.190Z,75.89
2018-09-22T20:43:04.191Z,76.19
2018-09-22T20:45:28.092Z,75.55
2018-09-22T20:47:51.988Z,76.17
2018-09-22T20:50:15.888Z,74.87
2018-09-22T20:52:39.882Z,75.87
2018-09-22T20:55:03.798Z,76.70
2018-09-22T20:57:27.765Z,76.78
2018-09-22T20:59:51.643Z,76.34
2018-09-22T21:02:15.536Z,76.33
2018-09-22T21:04:39.435Z,77.06
2018-09-22T21:07:03.328Z,75.54
2018-09-22T21:09:27.362Z,76.56
2018-09-22T21:11:51.260Z,76.14
2018-09-22T21:14:15.117Z,75.72
2018-09-22T21:16:39.056Z,75.89
2018-09-22T21:19:02.989Z,76.90
2018-09-22T21:21:26.929Z,75.99
2018-09-22T21:23:50.869Z,75.49
2018-09-22T21:26:14.989Z,76.46
2018-09-22T21:28:38.840Z,76.00
2018-09-22T21:31:02.761Z,76.35
2018-09-22T21:33:26.653Z,75.99
2018-09-22T21:35:50.519Z,76.45
2018-09-22T21:38:14.476Z,76.19
2018-09-22T21:40:38.384Z,76.15
2018-09-22T21:43:02.311Z,76.18
2018-09-22T21:45:26.470Z,76.48
2018-09-22T21:47:50.342Z,76.91
2018-09-22T21:50:14.240Z,76.21
2018-09-22T21:52:38.170Z,76.95
2018-09-22T21:55:02.108Z,76.11
2018-09-22T21:57:25.950Z,77.35
2018-09-22T21:59:49.816Z,77.05
2018-09-22T22:02:13.704Z,77.24
2018-09-22T22:04:37.565Z,77.71
2018-09-22T22:07:01.596Z,76.97
2018-09-22T22:09:25.457Z,76.56
2018-09-22T22:11:49.359Z,76.55
2018-09-22T22:14:13.290Z,75.96
2018-09-22T22:16:37.442Z,77.99
2018-09-22T22:19:01.418Z,76.35
2018-09-22T22:21:25.379Z,77.45
2018-09-22T22:23:49.258Z,75.39
2018-09-22T22:26:13.154Z,76.15
2018-09-22T22:28:37.047Z,76.12
2018-09-22T22:31:00.895Z,75.89
2018-09-22T22:33:24.743Z,74.49
2018-09-22T22:35:48.684Z,75.78
2018-09-22T22:38:12.554Z,76.43
2018-09-22T22:40:36.475Z,75.10
2018-09-22T22:43:00.343Z,76.75
2018-09-22T22:45:24.342Z,76.38
2018-09-22T22:47:48.228Z,76.50
2018-09-22T22:50:12.064Z,75.91
2018-09-22T22:52:35.957Z,75.37
2018-09-22T22:54:59.853Z,76.43
2018-09-22T22:57:23.708Z,75.91
2018-09-22T22:59:47.663Z,75.59
2018-09-22T23:02:11.526Z,75.63
2018-09-22T23:04:35.455Z,75.66
2018-09-22T23:06:59.316Z,76.27
2018-09-22T23:09:23.189Z,76.09
2018-09-22T23:11:47.113Z,75.36
2018-09-22T23:14:11.001Z,76.01
2018-09-22T23:16:34.902Z,76.38
2018-09-22T23:18:58.871Z,76.91
2018-09-22T23:21:22.728Z,76.07
2018-09-22T23:23:46.614Z,75.78
2018-09-22T23:26:10.859Z,77.25
2018-09-22T23:28:34.727Z,77.07
2018-09-22T23:30:58.585Z,76.56
2018-09-22T23:33:22.512Z,75.64
2018-09-22T23:35:46.386Z,76.80
2018-09-22T23:38:10.350Z,76.21
2018-09-22T23:40:34.239Z,75.73
2018-09-22T23:42:58.113Z,76.06
2018-09-22T23:45:21.984Z,75.85
2018-09-22T23:47:45.903Z,75.39
2018-09-22T23:50:09.737Z,74.94
2018-09-22T23:52:33.639Z,75.07
2018-09-22T23:54:57.486Z,76.15
2018-09-22T23:57:21.366Z,75.95
2018-09-22T23:59:45.207Z,75.93
